SBCG/CGR METAR and TAF weather

Enter ICAO airport designator
Station Type Date Time Source
SBCG METAR 2022/07/01 01:00 UTC NOAA

SBCG 010100Z 02003KT CAVOK 21/14 Q1017


Station Type Date Time Source
SBCG Decoded METAR 2022/07/01 01:00 UTC NOAA

Campo Grande Aeroporto , Brazil (SBCG) 20-28S 054-40W 567M
Jun 30, 2022 - 09:00 PM EDT / 2022.07.01 0100 UTC
Wind: from the NNE (020 degrees) at 3 MPH (3 KT):0
Visibility: greater than 7 mile(s):0
Temperature: 69 F (21 C)
Dew Point: 57 F (14 C)
Relative Humidity: 64%
Pressure (altimeter): 30.03 in. Hg (1017 hPa)
ob: SBCG 010100Z 02003KT CAVOK 21/14 Q1017
cycle: 1

Station Type Date Time Source
SBCG TAF 2022/06/30 18:58 UTC NOAA

TAF SBCG 301350Z 3018/0118 32010KT 9999 FEW040 TN16/0109Z TX29/0118Z
BECMG 3020/3022 00000KT
BECMG 3023/0101 15005KT
BECMG 0102/0104 09008KT
BECMG 0111/0113 03015KT
RMK PGE

Example: see airport list